createdAt,value
2023-05-30T00:00:56.921Z,1530.00
2023-05-30T00:01:56.847Z,1509.00
2023-05-30T00:02:56.979Z,1509.00
2023-05-30T00:03:56.947Z,1513.00
2023-05-30T00:04:56.916Z,1526.00
2023-05-30T00:05:56.940Z,1524.00
2023-05-30T00:06:56.977Z,1531.00
2023-05-30T00:07:57.011Z,1509.00
2023-05-30T00:08:57.107Z,1512.00
2023-05-30T00:09:57.116Z,1522.00
2023-05-30T00:10:57.318Z,1506.00
2023-05-30T00:11:57.160Z,1490.00
2023-05-30T00:12:57.195Z,1513.00
2023-05-30T00:13:57.221Z,1513.00
2023-05-30T00:14:57.287Z,1469.00
2023-05-30T00:15:57.347Z,1481.00
2023-05-30T00:16:57.350Z,1504.00
2023-05-30T00:17:57.412Z,1481.00
2023-05-30T00:18:57.441Z,1494.00
2023-05-30T00:19:57.459Z,1514.00
2023-05-30T00:20:57.779Z,1495.00
2023-05-30T00:21:57.517Z,1506.00
2023-05-30T00:22:57.619Z,1501.00
2023-05-30T00:23:57.597Z,1524.00
2023-05-30T00:24:57.661Z,1487.00
2023-05-30T00:25:57.674Z,1496.00
2023-05-30T00:26:57.722Z,1483.00
2023-05-30T00:27:57.753Z,1492.00
2023-05-30T00:28:57.843Z,1503.00
2023-05-30T00:29:57.846Z,1518.00
2023-05-30T00:30:58.112Z,1512.00
2023-05-30T00:31:57.945Z,1514.00
2023-05-30T00:32:57.957Z,1512.00
2023-05-30T00:33:57.981Z,1504.00
2023-05-30T00:34:58.042Z,1517.00
2023-05-30T00:35:58.086Z,1511.00
2023-05-30T00:36:58.114Z,1525.00
2023-05-30T00:37:58.158Z,1508.00
2023-05-30T00:38:58.196Z,1497.00
2023-05-30T00:39:58.266Z,1507.00
2023-05-30T00:40:58.521Z,1496.00
2023-05-30T00:41:58.320Z,1498.00
2023-05-30T00:42:58.365Z,1488.00
2023-05-30T00:43:58.443Z,1495.00
2023-05-30T00:44:58.467Z,1512.00
2023-05-30T00:45:58.539Z,1517.00
2023-05-30T00:46:58.553Z,1517.00
2023-05-30T00:47:58.659Z,1506.00
2023-05-30T00:48:58.646Z,1500.00
2023-05-30T00:49:58.660Z,1517.00
2023-05-30T00:50:58.982Z,1496.00
2023-05-30T00:51:58.749Z,1492.00
2023-05-30T00:52:58.800Z,1485.00
2023-05-30T00:53:58.837Z,1488.00
2023-05-30T00:54:58.893Z,1470.00
2023-05-30T00:55:58.932Z,1452.00
2023-05-30T00:56:58.977Z,1464.00
2023-05-30T00:57:59.016Z,1482.00
2023-05-30T00:58:59.067Z,1495.00
2023-05-30T00:59:59.100Z,1469.00
2023-05-30T01:00:59.376Z,1476.00
2023-05-30T01:01:59.193Z,1480.00
2023-05-30T01:02:59.294Z,1488.00
2023-05-30T01:03:59.297Z,1483.00
2023-05-30T01:04:59.334Z,1483.00
2023-05-30T01:05:59.389Z,1489.00
2023-05-30T01:06:59.422Z,1491.00
2023-05-30T01:07:59.456Z,1493.00
2023-05-30T01:08:59.515Z,1505.00
2023-05-30T01:09:59.589Z,1502.00
2023-05-30T01:10:59.581Z,1499.00
2023-05-30T01:11:59.628Z,1501.00
2023-05-30T01:12:59.707Z,1493.00
2023-05-30T01:13:59.718Z,1476.00
2023-05-30T01:14:59.752Z,1468.00
2023-05-30T01:15:59.852Z,1463.00
2023-05-30T01:16:59.834Z,1463.00
2023-05-30T01:17:59.910Z,1461.00
2023-05-30T01:18:59.931Z,1461.00
2023-05-30T01:19:59.979Z,1471.00
2023-05-30T01:21:00.153Z,1481.00
2023-05-30T01:22:00.059Z,1483.00
2023-05-30T01:23:00.140Z,1475.00
2023-05-30T01:24:00.137Z,1471.00
2023-05-30T01:25:00.197Z,1451.00
2023-05-30T01:26:00.238Z,1453.00
2023-05-30T01:27:00.264Z,1455.00
2023-05-30T01:28:00.324Z,1467.00
2023-05-30T01:29:00.349Z,1486.00
2023-05-30T01:30:00.424Z,1474.00
2023-05-30T01:31:00.776Z,1473.00
2023-05-30T01:32:00.633Z,1483.00
2023-05-30T01:33:00.557Z,1491.00
2023-05-30T01:34:00.586Z,1468.00
2023-05-30T01:35:00.650Z,1477.00
2023-05-30T01:36:00.682Z,1486.00
2023-05-30T01:37:00.720Z,1485.00
2023-05-30T01:38:00.774Z,1486.00
2023-05-30T01:39:00.813Z,1488.00
2023-05-30T01:40:00.886Z,1471.00
2023-05-30T01:41:00.925Z,1465.00
2023-05-30T01:42:01.009Z,1470.00
2023-05-30T01:43:01.748Z,1476.00
2023-05-30T01:44:01.045Z,1490.00
2023-05-30T01:45:01.108Z,1487.00
2023-05-30T01:46:01.142Z,1481.00
2023-05-30T01:47:01.177Z,1486.00
2023-05-30T01:48:01.245Z,1494.00
2023-05-30T01:49:01.277Z,1489.00
2023-05-30T01:50:01.293Z,1490.00
2023-05-30T01:51:01.331Z,1474.00
2023-05-30T01:52:01.305Z,1485.00
2023-05-30T01:53:01.309Z,1479.00
2023-05-30T01:54:01.379Z,1493.00
2023-05-30T01:55:01.341Z,1481.00
2023-05-30T01:56:01.343Z,1493.00
2023-05-30T01:57:01.350Z,1485.00
2023-05-30T01:58:01.368Z,1481.00
2023-05-30T01:59:01.382Z,1491.00
2023-05-30T02:00:01.390Z,1496.00
2023-05-30T02:01:01.418Z,1491.00
2023-05-30T02:02:01.430Z,1498.00
2023-05-30T02:03:01.449Z,1501.00
2023-05-30T02:04:01.471Z,1510.00
2023-05-30T02:05:01.469Z,1485.00
2023-05-30T02:06:01.564Z,1482.00
2023-05-30T02:07:01.531Z,1499.00
2023-05-30T02:08:01.584Z,1483.00
2023-05-30T02:09:01.636Z,1479.00
2023-05-30T02:10:01.676Z,1447.00
2023-05-30T02:11:01.712Z,1480.00
2023-05-30T02:12:01.777Z,1473.00
2023-05-30T02:13:01.891Z,1495.00
2023-05-30T02:14:01.929Z,1493.00
2023-05-30T02:15:01.933Z,1483.00
2023-05-30T02:16:01.981Z,1464.00
2023-05-30T02:17:02.118Z,1455.00
2023-05-30T02:18:02.161Z,1432.00
2023-05-30T02:19:02.134Z,1427.00
2023-05-30T02:20:02.221Z,1431.00
2023-05-30T02:21:02.246Z,1434.00
2023-05-30T02:22:02.370Z,1443.00
2023-05-30T02:23:02.366Z,1457.00
2023-05-30T02:24:02.421Z,1446.00
2023-05-30T02:25:02.496Z,1439.00
2023-05-30T02:26:02.528Z,1441.00
2023-05-30T02:27:02.595Z,1418.00
2023-05-30T02:28:02.644Z,1435.00
2023-05-30T02:29:02.684Z,1438.00
2023-05-30T02:30:02.770Z,1430.00
2023-05-30T02:31:02.806Z,1456.00
2023-05-30T02:32:02.909Z,1446.00
2023-05-30T02:33:03.071Z,1441.00
2023-05-30T02:34:02.993Z,1451.00
2023-05-30T02:35:03.050Z,1445.00
2023-05-30T02:36:03.099Z,1448.00
2023-05-30T02:37:03.176Z,1463.00
2023-05-30T02:38:03.219Z,1473.00
2023-05-30T02:39:03.276Z,1457.00
2023-05-30T02:40:03.340Z,1455.00
2023-05-30T02:41:03.401Z,1448.00
2023-05-30T02:42:03.469Z,1452.00
2023-05-30T02:43:09.582Z,1437.00
2023-05-30T02:44:04.530Z,1438.00
2023-05-30T02:45:03.544Z,1440.00
2023-05-30T02:46:03.555Z,1435.00
2023-05-30T02:47:03.636Z,1431.00
2023-05-30T02:48:03.635Z,1430.00
2023-05-30T02:49:03.615Z,1427.00
2023-05-30T02:50:03.612Z,1436.00
2023-05-30T02:51:03.635Z,1458.00
2023-05-30T02:52:03.647Z,1428.00
2023-05-30T02:53:03.656Z,1444.00
2023-05-30T02:54:03.688Z,1461.00
2023-05-30T02:55:03.689Z,1440.00
2023-05-30T02:56:03.771Z,1424.00
2023-05-30T02:57:03.758Z,1404.00
2023-05-30T02:58:03.763Z,1393.00
2023-05-30T02:59:03.812Z,1425.00
2023-05-30T03:00:03.878Z,1438.00
2023-05-30T03:01:03.939Z,1443.00
2023-05-30T03:02:03.972Z,1428.00
2023-05-30T03:03:04.117Z,1407.00
2023-05-30T03:04:04.166Z,1399.00
2023-05-30T03:05:04.153Z,1393.00
2023-05-30T03:06:06.056Z,1382.00
2023-05-30T03:07:04.276Z,1403.00
2023-05-30T03:08:08.730Z,1379.00
2023-05-30T03:09:05.327Z,1381.00
2023-05-30T03:10:04.375Z,1384.00
2023-05-30T03:11:04.362Z,1394.00
2023-05-30T03:12:04.386Z,1395.00
2023-05-30T03:13:04.404Z,1438.00
2023-05-30T03:14:04.406Z,1422.00
2023-05-30T03:15:04.415Z,1445.00
2023-05-30T03:16:04.489Z,1450.00
2023-05-30T03:17:04.445Z,1435.00
2023-05-30T03:18:04.505Z,1434.00
2023-05-30T03:19:04.476Z,1451.00
2023-05-30T03:20:04.548Z,1416.00
2023-05-30T03:21:04.515Z,1440.00
2023-05-30T03:22:04.525Z,1435.00
2023-05-30T03:23:04.551Z,1441.00
2023-05-30T03:24:04.611Z,1424.00
2023-05-30T03:25:04.665Z,1412.00
2023-05-30T03:26:04.738Z,1403.00
2023-05-30T03:27:04.769Z,1364.00
2023-05-30T03:28:04.832Z,1388.00
2023-05-30T03:29:04.875Z,1405.00
2023-05-30T03:30:04.940Z,1412.00
2023-05-30T03:31:04.996Z,1423.00
2023-05-30T03:32:05.135Z,1424.00
2023-05-30T03:33:05.184Z,1425.00
2023-05-30T03:34:05.166Z,1428.00
2023-05-30T03:35:05.216Z,1447.00
2023-05-30T03:36:05.279Z,1419.00
2023-05-30T03:37:05.327Z,1413.00
2023-05-30T03:38:05.397Z,1430.00
2023-05-30T03:39:05.434Z,1398.00
2023-05-30T03:40:05.502Z,1375.00
2023-05-30T03:41:05.530Z,1393.00
2023-05-30T03:42:05.607Z,1402.00
2023-05-30T03:43:05.670Z,1402.00
2023-05-30T03:44:05.715Z,1404.00
2023-05-30T03:45:05.776Z,1412.00
2023-05-30T03:46:05.957Z,1394.00
2023-05-30T03:47:05.977Z,1395.00
2023-05-30T03:48:05.988Z,1388.00
2023-05-30T03:49:06.002Z,1377.00
2023-05-30T03:50:06.066Z,1388.00
2023-05-30T03:51:06.202Z,1393.00
2023-05-30T03:52:06.186Z,1396.00
2023-05-30T03:53:06.285Z,1412.00
2023-05-30T03:54:06.274Z,1407.00
2023-05-30T03:55:06.789Z,1408.00
2023-05-30T03:56:06.381Z,1420.00
2023-05-30T03:57:06.440Z,1407.00
2023-05-30T03:58:06.496Z,1408.00
2023-05-30T03:59:06.548Z,1422.00
2023-05-30T04:00:06.621Z,1414.00
2023-05-30T04:01:06.714Z,1402.00
2023-05-30T04:02:06.753Z,1407.00
2023-05-30T04:03:06.903Z,1427.00
2023-05-30T04:04:06.867Z,1417.00
2023-05-30T04:05:06.905Z,1426.00
2023-05-30T04:06:06.988Z,1419.00
2023-05-30T04:07:07.054Z,1429.00
2023-05-30T04:08:07.090Z,1444.00
2023-05-30T04:09:07.148Z,1441.00
2023-05-30T04:10:07.210Z,1409.00
2023-05-30T04:11:07.252Z,1409.00
2023-05-30T04:12:07.326Z,1416.00
2023-05-30T04:13:07.373Z,1430.00
2023-05-30T04:14:07.441Z,1442.00
2023-05-30T04:15:07.527Z,1433.00
2023-05-30T04:16:07.681Z,1412.00
2023-05-30T04:17:07.722Z,1440.00
2023-05-30T04:18:08.304Z,1487.00
2023-05-30T04:19:07.779Z,1528.00
2023-05-30T04:20:07.857Z,1556.00
2023-05-30T04:21:07.988Z,1582.00
2023-05-30T04:22:08.779Z,1600.00
2023-05-30T04:23:08.104Z,1647.00
2023-05-30T04:24:08.074Z,1708.00
2023-05-30T04:25:08.286Z,1727.00
2023-05-30T04:26:08.146Z,1727.00
2023-05-30T04:27:08.177Z,1768.00
2023-05-30T04:28:08.247Z,1797.00
2023-05-30T04:29:08.294Z,1821.00
2023-05-30T04:30:08.372Z,1864.00
2023-05-30T04:31:20.896Z,1898.00
2023-05-30T04:32:09.448Z,1899.00
2023-05-30T04:33:08.435Z,1904.00
2023-05-30T04:34:08.430Z,1919.00
2023-05-30T04:35:08.442Z,1948.00
2023-05-30T04:36:08.452Z,1965.00
2023-05-30T04:37:08.499Z,2015.00
2023-05-30T04:38:08.477Z,2013.00
2023-05-30T04:39:08.486Z,2039.00
2023-05-30T04:40:08.509Z,2031.00
2023-05-30T04:41:08.512Z,2052.00
2023-05-30T04:42:08.532Z,2062.00
2023-05-30T04:43:08.550Z,2064.00
2023-05-30T04:44:08.596Z,2096.00
2023-05-30T04:45:08.584Z,2126.00
2023-05-30T04:46:11.406Z,2117.00
2023-05-30T04:47:08.663Z,2118.00
2023-05-30T04:48:08.769Z,2139.00
2023-05-30T04:49:08.646Z,2145.00
2023-05-30T04:50:08.643Z,2146.00
2023-05-30T04:51:08.660Z,2153.00
2023-05-30T04:52:08.701Z,2157.00
2023-05-30T04:53:08.701Z,2160.00
2023-05-30T04:54:08.821Z,2164.00
2023-05-30T04:55:08.710Z,2141.00
2023-05-30T04:56:08.738Z,2158.00
2023-05-30T04:57:08.740Z,2165.00
2023-05-30T04:58:08.773Z,2169.00
2023-05-30T04:59:08.777Z,2173.00
2023-05-30T05:00:08.795Z,2168.00
2023-05-30T05:01:08.811Z,2175.00
2023-05-30T05:02:08.816Z,2177.00
2023-05-30T05:03:08.900Z,2173.00
2023-05-30T05:04:08.904Z,2174.00
2023-05-30T05:05:08.855Z,2176.00
2023-05-30T05:06:08.885Z,2192.00
2023-05-30T05:07:08.902Z,2184.00
2023-05-30T05:08:08.914Z,2185.00
2023-05-30T05:09:08.928Z,2180.00
2023-05-30T05:10:08.954Z,2180.00
2023-05-30T05:11:08.969Z,2182.00
2023-05-30T05:12:09.016Z,2184.00
2023-05-30T05:13:08.968Z,2183.00
2023-05-30T05:14:08.971Z,2181.00
2023-05-30T05:15:08.981Z,2183.00
2023-05-30T05:16:09.036Z,2185.00
2023-05-30T05:17:09.041Z,2188.00
2023-05-30T05:18:09.092Z,2184.00
2023-05-30T05:19:09.028Z,2170.00
2023-05-30T05:20:11.890Z,2153.00
2023-05-30T05:21:09.101Z,2153.00
2023-05-30T05:22:09.059Z,2145.00
2023-05-30T05:23:09.067Z,2144.00
2023-05-30T05:24:09.063Z,2139.00
2023-05-30T05:25:09.102Z,2136.00
2023-05-30T05:26:09.275Z,2129.00
2023-05-30T05:27:09.074Z,2120.00
2023-05-30T05:28:09.118Z,2102.00
2023-05-30T05:29:09.099Z,2079.00
2023-05-30T05:30:09.117Z,2052.00
2023-05-30T05:31:09.109Z,2044.00
2023-05-30T05:32:09.136Z,2033.00
2023-05-30T05:33:09.145Z,2034.00
2023-05-30T05:34:09.146Z,2037.00
2023-05-30T05:35:09.144Z,2036.00
2023-05-30T05:36:09.150Z,2069.00
2023-05-30T05:37:09.142Z,2108.00
2023-05-30T05:38:09.152Z,2131.00
2023-05-30T05:39:09.158Z,2197.00
2023-05-30T05:40:09.205Z,2281.00
2023-05-30T05:41:09.164Z,2340.00
2023-05-30T05:42:09.164Z,2428.00
2023-05-30T05:43:09.196Z,2490.00
2023-05-30T05:44:09.190Z,2544.00
2023-05-30T05:45:09.878Z,2547.00
2023-05-30T05:46:09.379Z,2563.00
2023-05-30T05:47:09.216Z,2598.00
2023-05-30T05:48:09.222Z,2648.00
2023-05-30T05:49:09.347Z,2664.00
2023-05-30T05:50:09.316Z,2668.00
2023-05-30T05:51:09.212Z,2657.00
2023-05-30T05:52:09.222Z,2628.00
2023-05-30T05:53:09.219Z,2612.00
2023-05-30T05:54:09.217Z,2618.00
2023-05-30T05:55:09.247Z,2619.00
2023-05-30T05:56:09.257Z,2609.00
2023-05-30T05:57:09.258Z,2603.00
2023-05-30T05:58:09.226Z,2611.00
2023-05-30T05:59:09.252Z,2588.00
2023-05-30T06:00:09.268Z,2531.00
2023-05-30T06:01:09.415Z,2504.00
2023-05-30T06:02:09.280Z,2485.00
2023-05-30T06:03:09.519Z,2483.00
2023-05-30T06:04:09.353Z,2462.00
2023-05-30T06:05:09.274Z,2436.00
2023-05-30T06:06:09.277Z,2391.00
2023-05-30T06:07:09.253Z,2327.00
2023-05-30T06:08:09.238Z,2300.00
2023-05-30T06:09:09.238Z,2258.00
2023-05-30T06:10:09.238Z,2220.00
2023-05-30T06:11:09.247Z,2181.00
2023-05-30T06:12:09.240Z,2141.00
2023-05-30T06:13:09.251Z,2116.00
2023-05-30T06:14:09.336Z,2122.00
2023-05-30T06:15:09.254Z,2307.00
2023-05-30T06:16:09.297Z,2441.00
2023-05-30T06:17:09.250Z,2394.00
2023-05-30T06:18:09.295Z,2358.00
2023-05-30T06:19:09.259Z,2272.00
2023-05-30T06:20:09.329Z,2245.00
2023-05-30T06:21:09.418Z,2215.00
2023-05-30T06:22:09.256Z,2206.00
2023-05-30T06:23:09.265Z,2186.00
2023-05-30T06:24:09.319Z,2179.00
2023-05-30T06:25:09.302Z,2187.00
2023-05-30T06:26:09.296Z,2575.00
2023-05-30T06:27:09.308Z,3172.00
2023-05-30T06:28:09.330Z,3325.00
2023-05-30T06:29:09.393Z,3743.00
2023-05-30T06:30:09.347Z,4246.00
2023-05-30T06:31:09.377Z,4686.00
2023-05-30T06:32:16.114Z,4182.00
2023-05-30T06:33:10.368Z,3830.00
2023-05-30T06:34:09.389Z,3486.00
2023-05-30T06:35:09.344Z,3250.00
2023-05-30T06:36:09.343Z,3097.00
2023-05-30T06:37:09.340Z,2944.00
2023-05-30T06:38:09.347Z,2817.00
2023-05-30T06:39:09.343Z,2761.00
2023-05-30T06:40:09.466Z,2671.00
2023-05-30T06:41:09.338Z,2547.00
2023-05-30T06:42:09.356Z,2525.00
2023-05-30T06:43:09.329Z,2481.00
2023-05-30T06:44:09.324Z,2479.00
2023-05-30T06:45:09.353Z,2412.00
2023-05-30T06:46:09.516Z,2318.00
2023-05-30T06:47:09.328Z,2348.00
2023-05-30T06:48:09.364Z,2334.00
2023-05-30T06:49:09.343Z,2307.00
2023-05-30T06:50:09.374Z,2330.00
2023-05-30T06:51:09.364Z,2372.00
2023-05-30T06:52:09.338Z,2399.00
2023-05-30T06:53:09.339Z,2431.00
2023-05-30T06:54:09.344Z,2458.00
2023-05-30T06:55:09.339Z,2503.00
2023-05-30T06:56:09.326Z,2543.00
2023-05-30T06:57:09.355Z,2536.00
2023-05-30T06:58:09.332Z,2577.00
2023-05-30T06:59:09.308Z,2625.00
2023-05-30T07:00:09.322Z,2658.00
2023-05-30T07:01:09.388Z,2691.00
2023-05-30T07:02:09.414Z,2716.00
2023-05-30T07:03:09.577Z,2727.00
2023-05-30T07:04:09.687Z,2758.00
2023-05-30T07:05:09.644Z,2757.00
2023-05-30T07:06:09.630Z,2746.00
2023-05-30T07:07:09.636Z,2757.00
2023-05-30T07:08:09.677Z,2781.00
2023-05-30T07:09:09.747Z,2782.00
2023-05-30T07:10:09.819Z,2836.00
2023-05-30T07:11:09.852Z,2812.00
2023-05-30T07:12:10.033Z,2792.00
2023-05-30T07:13:09.994Z,2762.00
2023-05-30T07:14:10.023Z,2747.00
2023-05-30T07:15:10.119Z,2789.00
2023-05-30T07:16:10.187Z,2783.00
2023-05-30T07:17:10.897Z,2830.00
2023-05-30T07:18:10.345Z,2885.00
2023-05-30T07:19:13.060Z,3124.00
2023-05-30T07:20:10.479Z,3262.00
2023-05-30T07:21:10.322Z,3261.00
2023-05-30T07:22:10.317Z,3196.00
2023-05-30T07:23:10.298Z,3196.00
2023-05-30T07:24:10.282Z,3118.00
2023-05-30T07:25:10.301Z,3088.00
2023-05-30T07:26:10.267Z,3129.00
2023-05-30T07:27:10.256Z,3179.00
2023-05-30T07:28:10.287Z,3199.00
2023-05-30T07:29:10.254Z,3208.00
2023-05-30T07:30:10.221Z,3198.00
2023-05-30T07:31:10.258Z,3212.00
2023-05-30T07:32:10.236Z,3253.00
2023-05-30T07:33:10.231Z,3292.00
2023-05-30T07:34:10.237Z,3356.00
2023-05-30T07:35:10.220Z,3351.00
2023-05-30T07:36:10.170Z,3283.00
2023-05-30T07:37:10.234Z,3298.00
2023-05-30T07:38:10.187Z,3268.00
2023-05-30T07:39:10.195Z,3270.00
2023-05-30T07:40:10.236Z,3253.00
2023-05-30T07:41:10.897Z,3254.00
2023-05-30T07:42:10.266Z,3196.00
2023-05-30T07:43:10.197Z,3147.00
2023-05-30T07:44:10.230Z,3093.00
2023-05-30T07:45:10.277Z,3051.00
2023-05-30T07:46:10.398Z,2967.00
2023-05-30T07:47:10.194Z,2908.00
2023-05-30T07:48:10.204Z,2848.00
2023-05-30T07:49:10.248Z,2777.00
2023-05-30T07:50:10.330Z,2731.00
2023-05-30T07:51:10.313Z,2689.00
2023-05-30T07:52:10.395Z,2629.00
2023-05-30T07:53:10.452Z,2576.00
2023-05-30T07:54:10.540Z,2550.00
2023-05-30T07:55:10.599Z,2521.00
2023-05-30T07:56:10.631Z,2469.00
2023-05-30T07:57:10.695Z,2451.00
2023-05-30T07:58:10.766Z,2425.00
2023-05-30T07:59:10.851Z,2387.00
2023-05-30T08:00:10.917Z,2370.00
2023-05-30T08:01:10.919Z,2322.00
2023-05-30T08:02:11.011Z,2285.00
2023-05-30T08:03:11.073Z,2283.00
2023-05-30T08:04:11.071Z,2267.00
2023-05-30T08:05:11.092Z,2247.00
2023-05-30T08:06:11.115Z,2220.00
2023-05-30T08:07:11.129Z,2206.00
2023-05-30T08:08:11.210Z,2169.00
2023-05-30T08:09:11.226Z,2137.00
2023-05-30T08:10:11.309Z,2116.00
2023-05-30T08:11:11.325Z,2082.00
2023-05-30T08:12:11.382Z,2045.00
2023-05-30T08:13:11.448Z,2019.00
2023-05-30T08:14:11.473Z,2015.00
2023-05-30T08:15:11.550Z,1987.00
2023-05-30T08:16:11.645Z,1967.00
2023-05-30T08:17:11.688Z,1954.00
2023-05-30T08:18:11.711Z,1929.00
2023-05-30T08:19:11.719Z,1910.00
2023-05-30T08:20:11.746Z,1872.00
2023-05-30T08:21:11.780Z,1854.00
2023-05-30T08:22:11.836Z,1837.00
2023-05-30T08:23:11.833Z,1817.00
2023-05-30T08:24:11.819Z,1785.00
2023-05-30T08:25:11.956Z,1764.00
2023-05-30T08:26:11.904Z,1726.00
2023-05-30T08:27:12.918Z,1721.00
2023-05-30T08:28:11.976Z,1714.00
2023-05-30T08:29:12.019Z,1683.00
2023-05-30T08:30:12.117Z,1686.00
2023-05-30T08:31:12.201Z,1663.00
2023-05-30T08:32:12.150Z,1618.00
2023-05-30T08:33:12.236Z,1623.00
2023-05-30T08:34:12.231Z,1643.00
2023-05-30T08:35:12.383Z,1404.00
2023-05-30T08:36:12.401Z,760.00
2023-05-30T08:37:12.385Z,451.00
2023-05-30T08:38:12.374Z,400.00
2023-05-30T08:39:15.532Z,400.00
2023-05-30T08:40:12.432Z,400.00
2023-05-30T08:41:12.442Z,400.00
2023-05-30T08:42:12.414Z,400.00
2023-05-30T08:43:12.410Z,400.00
2023-05-30T08:44:12.447Z,400.00
2023-05-30T08:45:12.512Z,400.00
2023-05-30T08:46:12.518Z,400.00
2023-05-30T08:47:12.462Z,400.00
2023-05-30T08:48:12.501Z,400.00
2023-05-30T08:49:12.487Z,400.00
2023-05-30T08:50:12.499Z,400.00
2023-05-30T08:51:13.389Z,400.00
2023-05-30T08:52:12.503Z,412.00
2023-05-30T08:53:12.503Z,481.00
2023-05-30T08:54:12.577Z,559.00
2023-05-30T08:55:12.509Z,622.00
2023-05-30T08:56:12.511Z,716.00
2023-05-30T08:57:12.501Z,845.00
2023-05-30T08:58:12.498Z,1007.00
2023-05-30T08:59:12.511Z,1134.00
2023-05-30T09:00:13.077Z,1278.00
2023-05-30T09:01:12.726Z,1393.00
2023-05-30T09:02:12.560Z,1557.00
2023-05-30T09:03:12.602Z,1630.00
2023-05-30T09:04:12.574Z,1585.00
2023-05-30T09:05:12.508Z,1445.00
2023-05-30T09:06:12.502Z,1485.00
2023-05-30T09:07:12.506Z,1485.00
2023-05-30T09:08:12.519Z,1472.00
2023-05-30T09:09:12.551Z,1413.00
2023-05-30T09:10:12.543Z,1484.00
2023-05-30T09:11:12.493Z,1599.00
2023-05-30T09:12:12.490Z,1649.00
2023-05-30T09:13:12.514Z,1084.00
2023-05-30T09:14:12.536Z,642.00
2023-05-30T09:15:12.571Z,492.00
2023-05-30T09:16:12.557Z,400.00
2023-05-30T09:17:12.625Z,400.00
2023-05-30T09:18:12.573Z,400.00
2023-05-30T09:19:12.562Z,457.00
2023-05-30T09:20:12.624Z,541.00
2023-05-30T09:21:12.545Z,622.00
2023-05-30T09:22:12.554Z,646.00
2023-05-30T09:23:12.589Z,778.00
2023-05-30T09:24:12.588Z,629.00
2023-05-30T09:25:12.570Z,550.00
2023-05-30T09:26:12.516Z,531.00
2023-05-30T09:27:12.519Z,607.00
2023-05-30T09:28:12.558Z,694.00
2023-05-30T09:29:12.598Z,790.00
2023-05-30T09:30:12.526Z,907.00
2023-05-30T09:31:12.558Z,1103.00
2023-05-30T09:32:12.544Z,1207.00
2023-05-30T09:33:12.519Z,1263.00
2023-05-30T09:34:12.483Z,1314.00
2023-05-30T09:35:14.471Z,1394.00
2023-05-30T09:36:12.500Z,1481.00
2023-05-30T09:37:12.511Z,1560.00
2023-05-30T09:38:12.540Z,1617.00
2023-05-30T09:39:12.449Z,1740.00
2023-05-30T09:40:12.466Z,1854.00
2023-05-30T09:41:12.475Z,1889.00
2023-05-30T09:42:13.483Z,1889.00
2023-05-30T09:43:12.594Z,1860.00
2023-05-30T09:44:12.603Z,1895.00
2023-05-30T09:45:12.854Z,1527.00
2023-05-30T09:46:12.789Z,1478.00
2023-05-30T09:47:12.753Z,1049.00
2023-05-30T09:48:13.439Z,1150.00
2023-05-30T09:49:12.842Z,1068.00
2023-05-30T09:50:12.770Z,1070.00
2023-05-30T09:51:12.825Z,982.00
2023-05-30T09:52:12.815Z,1004.00
2023-05-30T09:53:12.706Z,1123.00
2023-05-30T09:54:12.836Z,1116.00
2023-05-30T09:55:12.945Z,655.00
2023-05-30T09:56:12.719Z,609.00
2023-05-30T09:57:12.777Z,630.00
2023-05-30T09:58:13.465Z,572.00
2023-05-30T09:59:12.866Z,658.00
2023-05-30T10:00:12.899Z,621.00
2023-05-30T10:01:13.135Z,684.00
2023-05-30T10:02:13.212Z,754.00
2023-05-30T10:03:13.198Z,784.00
2023-05-30T10:04:13.290Z,832.00
2023-05-30T10:05:13.208Z,825.00
2023-05-30T10:06:13.278Z,798.00
2023-05-30T10:07:13.315Z,863.00
2023-05-30T10:08:13.384Z,809.00
2023-05-30T10:09:13.459Z,784.00
2023-05-30T10:10:13.487Z,763.00
2023-05-30T10:11:13.551Z,516.00
2023-05-30T10:12:13.799Z,400.00
2023-05-30T10:13:13.694Z,400.00
2023-05-30T10:14:14.443Z,400.00
2023-05-30T10:15:13.953Z,400.00
2023-05-30T10:16:14.014Z,400.00
2023-05-30T10:17:14.041Z,400.00
2023-05-30T10:18:14.183Z,400.00
2023-05-30T10:19:14.311Z,400.00
2023-05-30T10:20:14.359Z,400.00
2023-05-30T10:21:14.395Z,400.00
2023-05-30T10:22:15.422Z,400.00
2023-05-30T10:23:14.530Z,400.00
2023-05-30T10:24:14.611Z,400.00
2023-05-30T10:25:14.697Z,400.00
2023-05-30T10:26:14.723Z,400.00
2023-05-30T10:27:14.789Z,400.00
2023-05-30T10:28:14.810Z,400.00
2023-05-30T10:29:15.055Z,400.00
2023-05-30T10:30:15.084Z,400.00
2023-05-30T10:31:15.143Z,400.00
2023-05-30T10:32:15.225Z,400.00
2023-05-30T10:33:15.442Z,400.00
2023-05-30T10:34:15.372Z,400.00
2023-05-30T10:35:15.478Z,400.00
2023-05-30T10:36:15.566Z,400.00
2023-05-30T10:37:15.691Z,400.00
2023-05-30T10:38:15.916Z,664.00
2023-05-30T10:39:15.895Z,1395.00
2023-05-30T10:40:15.919Z,2092.00
2023-05-30T10:41:15.919Z,2614.00
2023-05-30T10:42:15.957Z,2994.00
2023-05-30T10:43:16.025Z,3311.00
2023-05-30T10:44:16.197Z,3508.00
2023-05-30T10:45:16.207Z,3692.00
2023-05-30T10:46:16.316Z,3951.00
2023-05-30T10:47:16.409Z,4144.00
2023-05-30T10:48:16.404Z,4291.00
2023-05-30T10:49:16.451Z,4383.00
2023-05-30T10:50:16.494Z,4512.00
2023-05-30T10:51:16.535Z,4618.00
2023-05-30T10:52:16.583Z,4703.00
2023-05-30T10:53:16.611Z,4803.00
2023-05-30T10:54:16.631Z,4805.00
2023-05-30T10:55:16.623Z,4817.00
2023-05-30T10:56:16.618Z,4864.00
2023-05-30T10:57:16.631Z,4942.00
2023-05-30T10:58:16.629Z,5081.00
2023-05-30T10:59:16.622Z,5119.00
2023-05-30T11:00:16.644Z,5150.00
2023-05-30T11:01:16.672Z,5193.00
2023-05-30T11:02:16.652Z,5236.00
2023-05-30T11:03:16.698Z,5267.00
2023-05-30T11:04:16.695Z,5287.00
2023-05-30T11:05:16.695Z,5302.00
2023-05-30T11:06:16.718Z,5315.00
2023-05-30T11:07:16.667Z,5316.00
2023-05-30T11:08:16.692Z,5342.00
2023-05-30T11:09:16.682Z,5368.00
2023-05-30T11:10:16.694Z,5387.00
2023-05-30T11:11:16.703Z,5397.00
2023-05-30T11:12:16.702Z,5412.00
2023-05-30T11:13:16.727Z,5518.00
2023-05-30T11:14:16.747Z,5443.00
2023-05-30T11:15:16.762Z,5519.00
2023-05-30T11:16:16.745Z,5622.00
2023-05-30T11:17:16.710Z,5624.00
2023-05-30T11:18:16.794Z,5633.00
2023-05-30T11:19:16.741Z,5651.00
2023-05-30T11:20:16.827Z,5689.00
2023-05-30T11:21:16.744Z,5738.00
2023-05-30T11:22:16.755Z,5774.00
2023-05-30T11:23:16.756Z,5777.00
2023-05-30T11:24:16.747Z,5772.00
2023-05-30T11:25:16.792Z,5775.00
2023-05-30T11:26:16.889Z,5768.00
2023-05-30T11:27:17.076Z,5779.00
2023-05-30T11:28:17.117Z,5770.00
2023-05-30T11:29:17.098Z,5796.00
2023-05-30T11:30:17.149Z,5798.00
2023-05-30T11:31:17.300Z,5799.00
2023-05-30T11:32:17.263Z,5808.00
2023-05-30T11:33:17.401Z,5791.00
2023-05-30T11:34:17.422Z,5807.00
2023-05-30T11:35:17.456Z,5813.00
2023-05-30T11:36:17.520Z,5814.00
2023-05-30T11:37:17.565Z,5818.00
2023-05-30T11:38:17.645Z,5795.00
2023-05-30T11:39:17.697Z,5799.00
2023-05-30T11:40:17.763Z,5804.00
2023-05-30T11:41:17.848Z,5799.00
2023-05-30T11:42:17.900Z,5788.00
2023-05-30T11:43:17.963Z,5808.00
2023-05-30T11:44:18.019Z,5819.00
2023-05-30T11:45:18.064Z,5805.00
2023-05-30T11:46:18.142Z,5795.00
2023-05-30T11:47:32.347Z,5788.00
2023-05-30T11:48:19.277Z,5790.00
2023-05-30T11:49:18.190Z,5791.00
2023-05-30T11:50:18.180Z,5792.00
2023-05-30T11:51:18.164Z,5810.00
2023-05-30T11:52:18.179Z,5818.00
2023-05-30T11:53:18.206Z,5827.00
2023-05-30T11:54:18.166Z,5808.00
2023-05-30T11:55:18.180Z,5806.00
2023-05-30T11:56:18.182Z,5827.00
2023-05-30T11:57:18.243Z,5797.00
2023-05-30T11:58:18.281Z,5797.00
2023-05-30T11:59:18.314Z,5781.00
2023-05-30T12:00:18.385Z,5716.00
2023-05-30T12:01:18.417Z,5706.00
2023-05-30T12:02:18.558Z,5712.00
2023-05-30T12:03:18.936Z,5708.00
2023-05-30T12:04:18.597Z,5709.00
2023-05-30T12:05:18.654Z,5708.00
2023-05-30T12:06:18.575Z,5682.00
2023-05-30T12:07:18.526Z,5684.00
2023-05-30T12:08:18.582Z,5708.00
2023-05-30T12:09:18.514Z,5724.00